createdAt,value
2023-04-22T00:02:13.541Z,20
2023-04-22T00:08:07.365Z,19.6
2023-04-22T00:13:58.572Z,19.2
2023-04-22T00:19:51.741Z,18.9
2023-04-22T00:25:43.270Z,18.8
2023-04-22T00:31:35.293Z,20.3
2023-04-22T00:37:27.885Z,22.3
2023-04-22T00:43:03.562Z,20.2
2023-04-22T00:48:56.203Z,19.6
2023-04-22T00:54:47.957Z,19.3
2023-04-22T01:00:23.755Z,19
2023-04-22T01:06:02.073Z,18.8
2023-04-22T01:11:39.055Z,18.6
2023-04-22T01:17:33.828Z,21.2
2023-04-22T01:23:25.693Z,21.3
2023-04-22T01:29:17.190Z,19.8
2023-04-22T01:35:09.564Z,19.4
2023-04-22T01:41:01.370Z,19.1
2023-04-22T01:46:52.838Z,18.9
2023-04-22T01:52:29.126Z,18.6
2023-04-22T01:58:05.743Z,19.5
2023-04-22T02:03:58.313Z,22.1
2023-04-22T02:09:50.831Z,20.3
2023-04-22T02:15:41.892Z,19.6
2023-04-22T02:21:34.543Z,19.3
2023-04-22T02:27:25.839Z,19
2023-04-22T02:33:17.149Z,18.8
2023-04-22T02:39:08.874Z,18.6
2023-04-22T02:45:00.285Z,21.3
2023-04-22T02:56:28.128Z,19.8
2023-04-22T03:02:24.053Z,19.4
2023-04-22T03:08:16.375Z,19.1
2023-04-22T03:14:08.529Z,18.8
2023-04-22T03:20:01.033Z,18.6
2023-04-22T03:25:52.474Z,18.9
2023-04-22T03:31:44.034Z,21.8
2023-04-22T03:37:38.607Z,20.4
2023-04-22T03:43:31.131Z,19.6
2023-04-22T03:49:25.748Z,19.2
2023-04-22T03:55:17.720Z,18.9
2023-04-22T04:06:51.874Z,18.5
2023-04-22T04:12:43.260Z,20.8
2023-04-22T04:18:35.364Z,21.6
2023-04-22T04:24:29.741Z,19.9
2023-04-22T04:30:05.809Z,19.2
2023-04-22T04:35:58.273Z,18.9
2023-04-22T04:47:28.372Z,18.5
2023-04-22T04:53:19.341Z,18.4
2023-04-22T04:59:11.250Z,21.4
2023-04-22T05:05:04.841Z,20.9
2023-04-22T05:10:56.623Z,19.6
2023-04-22T05:16:48.307Z,19.2
2023-04-22T05:22:39.714Z,18.9
2023-04-22T05:28:31.299Z,18.8
2023-04-22T05:34:08.626Z,18.6
2023-04-22T05:40:00.346Z,21.4
2023-04-22T05:45:53.880Z,21
2023-04-22T05:51:46.575Z,19.8
2023-04-22T05:57:37.465Z,19.4
2023-04-22T06:03:30.721Z,19.1
2023-04-22T06:09:09.870Z,18.9
2023-04-22T06:15:07.222Z,18.6
2023-04-22T06:21:01.329Z,19.7
2023-04-22T06:26:37.802Z,22.2
2023-04-22T06:32:29.630Z,20.3
2023-04-22T06:38:21.033Z,19.6
2023-04-22T06:44:12.723Z,19.3
2023-04-22T06:50:04.289Z,19.1
2023-04-22T06:55:58.612Z,18.9
2023-04-22T07:07:28.987Z,20.1
2023-04-22T07:13:05.161Z,22.1
2023-04-22T07:18:57.173Z,20.1
2023-04-22T07:24:49.317Z,19.6
2023-04-22T07:30:40.501Z,19.3
2023-04-22T07:36:17.218Z,19
2023-04-22T07:42:08.751Z,18.8
2023-04-22T07:48:00.703Z,20.4
2023-04-22T07:53:55.168Z,21.9
2023-04-22T07:59:31.614Z,20
2023-04-22T08:05:27.399Z,19.5
2023-04-22T08:11:35.544Z,19.2
2023-04-22T08:17:27.532Z,18.9
2023-04-22T08:23:18.996Z,18.8
2023-04-22T08:29:10.318Z,22.2
2023-04-22T08:34:51.740Z,20.6
2023-04-22T08:40:47.298Z,19.7
2023-04-22T08:46:42.896Z,19.3
2023-04-22T08:52:36.822Z,19.1
2023-04-22T08:58:13.353Z,18.9
2023-04-22T09:04:06.306Z,20.6
2023-04-22T09:09:42.952Z,21.7
2023-04-22T09:15:35.962Z,19.9
2023-04-22T09:21:27.823Z,19.5
2023-04-22T09:27:19.499Z,19.2
2023-04-22T09:33:11.718Z,19
2023-04-22T09:39:12.343Z,18.8
2023-04-22T09:45:04.100Z,22.6
2023-04-22T09:50:56.191Z,20.3
2023-04-22T09:56:47.523Z,19.6
2023-04-22T10:02:38.773Z,19.3
2023-04-22T10:08:30.348Z,19.1
2023-04-22T10:14:31.178Z,18.9
2023-04-22T10:25:58.477Z,18.5
2023-04-22T10:31:35.390Z,18.4
2023-04-22T10:37:30.827Z,18.2
2023-04-22T10:43:24.187Z,18.1
2023-04-22T10:54:52.755Z,17.9
2023-04-22T11:01:03.274Z,17.7
2023-04-22T11:06:40.606Z,17.6
2023-04-22T11:12:16.305Z,17.5
2023-04-22T11:18:08.894Z,17.4
2023-04-22T11:24:03.415Z,17.4
2023-04-22T11:29:55.551Z,17.3
2023-04-22T11:35:32.652Z,17.3
2023-04-22T11:41:53.468Z,17.2
2023-04-22T11:47:45.952Z,17.1
2023-04-22T11:53:37.316Z,17.1
2023-04-22T12:05:08.209Z,16.9
2023-04-22T12:10:59.683Z,16.9
2023-04-22T12:16:53.813Z,16.8
2023-04-22T12:22:45.613Z,16.8
2023-04-22T12:28:39.154Z,16.8
2023-04-22T12:34:30.950Z,16.8
2023-04-22T12:40:22.738Z,16.8
2023-04-22T12:46:15.194Z,16.8
2023-04-22T12:52:07.875Z,16.8
2023-04-22T12:57:59.524Z,16.8
2023-04-22T13:03:52.721Z,16.7
2023-04-22T13:09:56.405Z,16.7
2023-04-22T13:16:01.332Z,16.7
2023-04-22T13:21:55.907Z,16.7
2023-04-22T13:27:32.347Z,16.6
2023-04-22T13:33:27.956Z,16.6
2023-04-22T13:39:19.900Z,16.6
2023-04-22T13:45:12.010Z,16.6
2023-04-22T13:51:04.790Z,16.6
2023-04-22T13:56:57.072Z,16.6
2023-04-22T14:02:33.910Z,16.6
2023-04-22T14:08:11.731Z,16.6
2023-04-22T14:14:03.545Z,16.5
2023-04-22T14:19:42.078Z,16.5
2023-04-22T14:25:19.784Z,16.5
2023-04-22T14:31:11.232Z,16.5
2023-04-22T14:37:05.230Z,16.5
2023-04-22T14:42:58.723Z,16.5
2023-04-22T14:48:52.725Z,16.5
2023-04-22T14:54:44.816Z,16.4
2023-04-22T15:00:45.477Z,16.4
2023-04-22T15:06:37.242Z,16.4
2023-04-22T15:12:28.902Z,16.5
2023-04-22T15:18:20.520Z,16.5
2023-04-22T15:24:14.383Z,16.4
2023-04-22T15:30:06.142Z,16.5
2023-04-22T15:35:59.553Z,16.5
2023-04-22T15:41:51.253Z,16.4
2023-04-22T15:47:44.438Z,16.5
2023-04-22T15:53:20.282Z,16.4
2023-04-22T15:59:11.099Z,16.4
2023-04-22T16:05:27.097Z,16.4
2023-04-22T16:11:18.829Z,16.5
2023-04-22T16:17:10.206Z,16.5
2023-04-22T16:23:01.781Z,16.4
2023-04-22T16:28:52.672Z,16.4
2023-04-22T16:34:29.168Z,16.5
2023-04-22T16:40:05.039Z,16.4
2023-04-22T16:45:40.990Z,16.4
2023-04-22T16:51:32.330Z,16.4
2023-04-22T16:57:23.871Z,16.5
2023-04-22T17:03:17.553Z,16.5
2023-04-22T17:09:10.026Z,16.5
2023-04-22T17:15:02.213Z,16.5
2023-04-22T17:20:53.496Z,16.5
2023-04-22T17:26:44.421Z,16.5
2023-04-22T17:32:20.419Z,16.5
2023-04-22T17:38:13.418Z,16.5
2023-04-22T17:44:17.942Z,16.5
2023-04-22T17:50:09.447Z,16.5
2023-04-22T17:56:00.721Z,16.5
2023-04-22T18:01:52.371Z,16.5
2023-04-22T18:07:45.228Z,16.5
2023-04-22T18:13:37.111Z,16.4
2023-04-22T18:19:14.258Z,16.4
2023-04-22T18:25:34.028Z,16.4
2023-04-22T18:31:25.119Z,16.4
2023-04-22T18:37:01.409Z,16.4
2023-04-22T18:42:52.726Z,16.4
2023-04-22T18:48:28.696Z,16.4
2023-04-22T18:54:19.385Z,16.4
2023-04-22T18:59:56.978Z,16.4
2023-04-22T19:05:35.018Z,16.4
2023-04-22T19:11:26.170Z,16.4
2023-04-22T19:17:18.933Z,16.4
2023-04-22T19:22:55.017Z,16.4
2023-04-22T19:28:31.825Z,16.4
2023-04-22T19:34:09.216Z,16.4
2023-04-22T19:40:00.820Z,16.4
2023-04-22T19:45:22.676Z,16.4
2023-04-22T19:51:14.848Z,16.4
2023-04-22T19:57:05.740Z,16.4
2023-04-22T20:02:58.780Z,16.4
2023-04-22T20:08:51.717Z,16.4
2023-04-22T20:14:42.862Z,16.4
2023-04-22T20:20:35.180Z,16.3
2023-04-22T20:26:27.466Z,16.4
2023-04-22T20:32:19.062Z,16.4
2023-04-22T20:38:10.741Z,16.3
2023-04-22T20:44:01.919Z,16.3
2023-04-22T20:49:57.083Z,16.3
2023-04-22T20:56:00.875Z,19.8
2023-04-22T21:01:51.966Z,22.3
2023-04-22T21:07:45.467Z,21.2
2023-04-22T21:13:37.388Z,19.8
2023-04-22T21:19:30.336Z,19.4
2023-04-22T21:25:21.201Z,19.2
2023-04-22T21:31:13.503Z,22.3
2023-04-22T21:37:19.720Z,21.1
2023-04-22T21:43:10.958Z,19.8
2023-04-22T21:48:46.821Z,19.4
2023-04-22T21:54:38.346Z,19.3
2023-04-22T22:00:14.244Z,19.1
2023-04-22T22:05:54.448Z,22.3
2023-04-22T22:11:57.803Z,21.1
2023-04-22T22:17:50.902Z,19.9
2023-04-22T22:23:41.994Z,19.5
2023-04-22T22:29:34.495Z,19.3
2023-04-22T22:35:26.380Z,19
2023-04-22T22:41:18.461Z,21
2023-04-22T22:47:11.335Z,22.3
2023-04-22T22:53:03.154Z,20.2
2023-04-22T22:58:54.372Z,19.7
2023-04-22T23:04:48.805Z,19.4
2023-04-22T23:10:24.799Z,19.1
2023-04-22T23:16:16.148Z,18.9
2023-04-22T23:22:07.853Z,20.9
2023-04-22T23:27:58.781Z,22.3
2023-04-22T23:33:49.555Z,20.3
2023-04-22T23:39:42.009Z,19.6
2023-04-22T23:45:33.715Z,19.4
2023-04-22T23:51:10.355Z,19.1
2023-04-22T23:57:02.524Z,19
